createdAt,value
2023-10-25T00:01:46.369Z,95369.16
2023-10-25T00:04:13.459Z,95362.81
2023-10-25T00:06:40.369Z,95360.00
2023-10-25T00:09:07.222Z,95358.53
2023-10-25T00:11:34.034Z,95359.63
2023-10-25T00:14:00.880Z,95351.19
2023-10-25T00:16:27.660Z,95342.75
2023-10-25T00:18:54.746Z,95336.25
2023-10-25T00:21:21.526Z,95338.81
2023-10-25T00:23:48.293Z,95331.84
2023-10-25T00:26:15.130Z,95326.88
2023-10-25T00:28:41.876Z,95323.38
2023-10-25T00:31:09.041Z,95326.06
2023-10-25T00:33:36.269Z,95329.94
2023-10-25T00:36:03.174Z,95325.22
2023-10-25T00:38:30.001Z,95332.19
2023-10-25T00:40:56.762Z,95330.94
2023-10-25T00:43:24.523Z,95329.97
2023-10-25T00:46:03.144Z,95331.69
2023-10-25T00:48:30.961Z,95325.47
2023-10-25T00:50:58.495Z,95319.78
2023-10-25T00:53:26.655Z,95313.09
2023-10-25T00:55:56.713Z,95305.84
2023-10-25T00:58:24.743Z,95293.00
2023-10-25T01:03:31.037Z,95303.97
2023-10-25T01:05:58.157Z,95304.72
2023-10-25T01:08:25.076Z,95304.34
2023-10-25T01:10:53.334Z,95301.63
2023-10-25T01:13:21.360Z,95304.06
2023-10-25T01:15:48.769Z,95310.19
2023-10-25T01:18:16.363Z,95298.84
2023-10-25T01:20:43.804Z,95293.47
2023-10-25T01:23:11.100Z,95291.72
2023-10-25T01:25:39.415Z,95289.19
2023-10-25T01:28:06.868Z,95285.31
2023-10-25T01:30:33.865Z,95283.59
2023-10-25T01:33:01.069Z,95277.88
2023-10-25T01:35:28.057Z,95287.34
2023-10-25T01:37:55.736Z,95282.59
2023-10-25T01:40:22.558Z,95280.97
2023-10-25T01:42:52.636Z,95275.63
2023-10-25T01:45:20.166Z,95283.06
2023-10-25T01:47:46.940Z,95276.41
2023-10-25T01:50:13.715Z,95282.84
2023-10-25T01:52:40.529Z,95283.78
2023-10-25T01:55:08.670Z,95278.84
2023-10-25T01:57:35.591Z,95270.16
2023-10-25T02:00:07.935Z,95270.00
2023-10-25T02:02:35.290Z,95271.63
2023-10-25T02:05:02.227Z,95272.94
2023-10-25T02:07:29.339Z,95272.94
2023-10-25T02:09:56.294Z,95267.56
2023-10-25T02:12:23.114Z,95269.44
2023-10-25T02:14:49.974Z,95266.47
2023-10-25T02:17:16.821Z,95263.13
2023-10-25T02:19:43.839Z,95264.34
2023-10-25T02:22:10.855Z,95262.91
2023-10-25T02:24:37.644Z,95266.69
2023-10-25T02:27:04.784Z,95268.22
2023-10-25T02:29:32.800Z,95254.09
2023-10-25T02:31:59.764Z,95265.38
2023-10-25T02:34:26.680Z,95259.94
2023-10-25T02:36:53.460Z,95270.81
2023-10-25T02:39:20.271Z,95271.97
2023-10-25T02:41:47.018Z,95261.09
2023-10-25T02:44:14.083Z,95269.75
2023-10-25T02:46:40.922Z,95270.75
2023-10-25T02:49:07.964Z,95262.91
2023-10-25T02:51:35.759Z,95263.47
2023-10-25T02:54:02.513Z,95268.44
2023-10-25T02:56:29.319Z,95259.25
2023-10-25T02:58:56.054Z,95260.84
2023-10-25T03:01:26.459Z,95261.88
2023-10-25T03:03:53.454Z,95257.53
2023-10-25T03:06:20.406Z,95252.25
2023-10-25T03:08:48.108Z,95251.19
2023-10-25T03:11:14.924Z,95254.84
2023-10-25T03:13:41.798Z,95243.59
2023-10-25T03:16:10.226Z,95235.28
2023-10-25T03:18:37.092Z,95234.03
2023-10-25T03:21:05.097Z,95230.84
2023-10-25T03:23:32.611Z,95231.78
2023-10-25T03:26:07.425Z,95232.47
2023-10-25T03:28:37.532Z,95237.34
2023-10-25T03:31:07.474Z,95227.91
2023-10-25T03:33:35.058Z,95222.09
2023-10-25T03:36:02.213Z,95223.38
2023-10-25T03:38:29.623Z,95219.88
2023-10-25T03:41:05.272Z,95224.13
2023-10-25T03:43:36.056Z,95217.34
2023-10-25T03:46:09.720Z,95224.88
2023-10-25T03:48:38.373Z,95223.59
2023-10-25T03:51:06.622Z,95230.25
2023-10-25T03:53:37.384Z,95229.63
2023-10-25T03:56:04.700Z,95218.19
2023-10-25T03:58:31.778Z,95213.19
2023-10-25T04:01:11.291Z,95218.41
2023-10-25T04:03:38.744Z,95206.38
2023-10-25T04:06:06.525Z,95211.97
2023-10-25T04:08:33.460Z,95206.53
2023-10-25T04:11:01.202Z,95208.34
2023-10-25T04:13:28.451Z,95217.94
2023-10-25T04:16:01.942Z,95201.50
2023-10-25T04:18:30.331Z,95204.53
2023-10-25T04:20:58.675Z,95195.53
2023-10-25T04:23:31.839Z,95198.06
2023-10-25T04:26:09.087Z,95191.75
2023-10-25T04:28:37.631Z,95189.06
2023-10-25T04:31:04.581Z,95189.19
2023-10-25T04:33:31.668Z,95190.59
2023-10-25T04:35:58.628Z,95184.94
2023-10-25T04:38:26.065Z,95173.22
2023-10-25T04:40:56.690Z,95171.84
2023-10-25T04:43:23.568Z,95166.72
2023-10-25T04:45:50.538Z,95170.69
2023-10-25T04:48:17.340Z,95165.28
2023-10-25T04:50:44.414Z,95173.66
2023-10-25T04:53:11.438Z,95168.72
2023-10-25T04:55:38.523Z,95168.53
2023-10-25T04:58:06.033Z,95152.13
2023-10-25T05:00:33.431Z,95152.31
2023-10-25T05:03:00.432Z,95154.00
2023-10-25T05:05:27.400Z,95146.47
2023-10-25T05:07:54.417Z,95140.75
2023-10-25T05:10:21.669Z,95140.53
2023-10-25T05:12:49.627Z,95128.50
2023-10-25T05:15:18.634Z,95125.25
2023-10-25T05:17:48.910Z,95124.22
2023-10-25T05:20:16.424Z,95122.59
2023-10-25T05:22:48.686Z,95120.91
2023-10-25T05:25:15.964Z,95104.84
2023-10-25T05:27:43.280Z,95114.28
2023-10-25T05:30:11.336Z,95109.22
2023-10-25T05:32:39.236Z,95107.72
2023-10-25T05:35:07.675Z,95105.47
2023-10-25T05:37:35.139Z,95102.16
2023-10-25T05:40:02.458Z,95099.97
2023-10-25T05:42:29.567Z,95096.88
2023-10-25T05:44:56.985Z,95088.00
2023-10-25T05:47:27.788Z,95089.00
2023-10-25T05:49:55.135Z,95086.06
2023-10-25T05:52:22.266Z,95088.50
2023-10-25T05:54:49.421Z,95085.19
2023-10-25T05:57:16.465Z,95085.09
2023-10-25T05:59:43.616Z,95080.41
2023-10-25T06:02:24.198Z,95075.00
2023-10-25T06:04:51.879Z,95075.59
2023-10-25T06:07:18.795Z,95079.34
2023-10-25T06:09:45.814Z,95084.09
2023-10-25T06:12:13.004Z,95085.03
2023-10-25T06:14:39.750Z,95085.91
2023-10-25T06:17:06.646Z,95089.44
2023-10-25T06:19:33.661Z,95085.78
2023-10-25T06:22:00.428Z,95091.47
2023-10-25T06:24:27.134Z,95096.59
2023-10-25T06:26:53.841Z,95095.94
2023-10-25T06:29:20.631Z,95096.88
2023-10-25T06:31:53.483Z,95094.34
2023-10-25T06:34:21.313Z,95101.78
2023-10-25T06:36:49.252Z,95099.25
2023-10-25T06:39:16.873Z,95110.16
2023-10-25T06:41:45.034Z,95110.06
2023-10-25T06:44:12.429Z,95112.44
2023-10-25T06:46:39.748Z,95116.19
2023-10-25T06:49:07.283Z,95111.13
2023-10-25T06:51:34.404Z,95122.22
2023-10-25T06:54:01.603Z,95126.69
2023-10-25T06:56:30.526Z,95123.94
2023-10-25T06:58:59.097Z,95127.84
2023-10-25T07:01:29.296Z,95113.72
2023-10-25T07:03:59.543Z,95113.84
2023-10-25T07:06:26.845Z,95113.84
2023-10-25T07:08:53.900Z,95126.19
2023-10-25T07:11:22.670Z,95127.47
2023-10-25T07:13:51.109Z,95112.19
2023-10-25T07:16:17.993Z,95105.19
2023-10-25T07:18:47.025Z,95087.56
2023-10-25T07:21:13.795Z,95101.00
2023-10-25T07:23:40.824Z,95110.44
2023-10-25T07:26:08.226Z,95121.94
2023-10-25T07:28:35.032Z,95102.78
2023-10-25T07:31:01.855Z,95105.09
2023-10-25T07:33:29.994Z,95085.03
2023-10-25T07:35:56.911Z,95091.66
2023-10-25T07:38:23.813Z,95101.84
2023-10-25T07:40:51.087Z,95097.78
2023-10-25T07:43:18.009Z,95092.81
2023-10-25T07:45:44.969Z,95098.50
2023-10-25T07:48:11.948Z,95084.28
2023-10-25T07:50:39.039Z,95088.63
2023-10-25T07:53:05.918Z,95080.91
2023-10-25T08:00:31.999Z,95081.94
2023-10-25T08:02:58.814Z,95073.09
2023-10-25T08:05:25.702Z,95064.91
2023-10-25T08:07:52.839Z,95057.63
2023-10-25T08:10:19.862Z,95065.63
2023-10-25T08:12:46.630Z,95070.19
2023-10-25T08:15:13.859Z,95068.38
2023-10-25T08:17:40.765Z,95064.38
2023-10-25T08:20:08.164Z,95071.78
2023-10-25T08:22:36.564Z,95063.03
2023-10-25T08:25:03.611Z,95065.53
2023-10-25T08:27:31.294Z,95075.09
2023-10-25T08:29:58.089Z,95073.28
2023-10-25T08:32:24.916Z,95071.69
2023-10-25T08:34:51.930Z,95060.44
2023-10-25T08:37:19.559Z,95059.03
2023-10-25T08:39:46.317Z,95066.31
2023-10-25T08:42:13.618Z,95068.06
2023-10-25T08:44:43.402Z,95064.63
2023-10-25T08:47:11.816Z,95048.13
2023-10-25T08:49:39.397Z,95037.19
2023-10-25T08:52:07.550Z,95041.00
2023-10-25T08:54:36.944Z,95038.91
2023-10-25T08:57:06.111Z,95036.91
2023-10-25T08:59:42.133Z,95026.75
2023-10-25T09:02:10.920Z,95033.53
2023-10-25T09:04:37.715Z,95041.56
2023-10-25T09:07:34.661Z,95033.97
2023-10-25T09:10:01.411Z,95036.50
2023-10-25T09:12:28.503Z,95044.94
2023-10-25T09:14:55.297Z,95040.97
2023-10-25T09:17:22.145Z,95038.88
2023-10-25T09:19:50.477Z,95034.47
2023-10-25T09:22:26.618Z,95020.03
2023-10-25T09:24:56.124Z,95015.31
2023-10-25T09:29:52.648Z,94995.09
2023-10-25T09:32:21.355Z,94991.34
2023-10-25T09:34:49.447Z,94968.34
2023-10-25T09:37:16.989Z,94970.16
2023-10-25T09:39:44.027Z,94974.69
2023-10-25T09:42:12.514Z,94962.66
2023-10-25T09:44:49.578Z,94962.56
2023-10-25T09:47:17.966Z,94964.09
2023-10-25T09:49:46.203Z,94969.63
2023-10-25T09:52:26.247Z,94964.59
2023-10-25T09:55:00.718Z,94943.97
2023-10-25T09:57:30.788Z,94934.78
2023-10-25T09:59:58.795Z,94934.88
2023-10-25T10:02:40.899Z,94934.53
2023-10-25T10:05:15.038Z,94932.59
2023-10-25T10:08:07.046Z,94914.09
2023-10-25T10:10:43.743Z,94911.19
2023-10-25T10:13:21.511Z,94910.31
2023-10-25T10:16:12.490Z,94902.03
2023-10-25T10:18:43.868Z,94899.16
2023-10-25T10:21:11.746Z,94902.88
2023-10-25T10:23:41.609Z,94906.94
2023-10-25T10:26:09.692Z,94899.69
2023-10-25T10:28:43.811Z,94909.47
2023-10-25T10:31:12.298Z,94903.56
2023-10-25T10:33:45.056Z,94898.50
2023-10-25T10:36:12.206Z,94882.19
2023-10-25T10:39:14.064Z,94869.72
2023-10-25T10:41:45.346Z,94851.03
2023-10-25T10:44:12.851Z,94853.09
2023-10-25T10:46:51.176Z,94835.03
2023-10-25T10:49:19.947Z,94832.94
2023-10-25T10:51:48.242Z,94841.31
2023-10-25T10:54:16.843Z,94838.06
2023-10-25T10:56:43.669Z,94833.94
2023-10-25T10:59:10.748Z,94818.63
2023-10-25T11:01:37.701Z,94817.31
2023-10-25T11:04:04.767Z,94807.81
2023-10-25T11:06:31.620Z,94815.78
2023-10-25T11:09:01.322Z,94797.25
2023-10-25T11:11:28.296Z,94800.16
2023-10-25T11:13:55.433Z,94798.63
2023-10-25T11:16:22.216Z,94794.25
2023-10-25T11:18:49.086Z,94800.56
2023-10-25T11:21:15.977Z,94791.22
2023-10-25T11:23:43.993Z,94774.69
2023-10-25T11:26:10.837Z,94770.09
2023-10-25T11:28:40.341Z,94781.38
2023-10-25T11:31:08.964Z,94781.53
2023-10-25T11:33:46.500Z,94760.94
2023-10-25T11:36:13.403Z,94749.22
2023-10-25T11:38:44.886Z,94740.06
2023-10-25T11:41:12.554Z,94745.69
2023-10-25T11:43:40.736Z,94732.63
2023-10-25T11:46:07.475Z,94725.66
2023-10-25T11:48:38.893Z,94712.47
2023-10-25T11:51:08.066Z,94689.16
2023-10-25T11:53:34.942Z,94679.19
2023-10-25T11:56:02.015Z,94685.94
2023-10-25T11:58:32.268Z,94690.66
2023-10-25T12:01:00.242Z,94704.75
2023-10-25T12:03:27.111Z,94693.53
2023-10-25T12:05:54.139Z,94671.63
2023-10-25T12:08:21.024Z,94666.81
2023-10-25T12:10:47.704Z,94673.59
2023-10-25T12:13:14.754Z,94670.84
2023-10-25T12:15:41.502Z,94660.91
2023-10-25T12:18:08.400Z,94659.75
2023-10-25T12:20:35.239Z,94653.69
2023-10-25T12:23:03.180Z,94653.53
2023-10-25T12:25:29.815Z,94667.28
2023-10-25T12:27:56.822Z,94648.16
2023-10-25T12:30:24.283Z,94662.91
2023-10-25T12:32:52.810Z,94663.63
2023-10-25T12:35:19.772Z,94665.50
2023-10-25T12:37:46.604Z,94685.47
2023-10-25T12:40:13.378Z,94691.84
2023-10-25T12:42:40.291Z,94712.31
2023-10-25T12:45:08.860Z,94707.06
2023-10-25T12:47:35.930Z,94712.97
2023-10-25T12:50:05.258Z,94711.56
2023-10-25T12:52:31.979Z,94709.63
2023-10-25T12:54:58.719Z,94722.19
2023-10-25T12:57:25.611Z,94731.97
2023-10-25T12:59:52.346Z,94736.47
2023-10-25T13:02:19.453Z,94734.88
2023-10-25T13:04:46.276Z,94728.00
2023-10-25T13:07:13.074Z,94739.97
2023-10-25T13:09:40.552Z,94719.53
2023-10-25T13:12:10.163Z,94732.88
2023-10-25T13:14:37.265Z,94731.28
2023-10-25T13:17:19.000Z,94721.41
2023-10-25T13:19:47.216Z,94726.03
2023-10-25T13:22:15.690Z,94729.63
2023-10-25T13:24:43.038Z,94733.56
2023-10-25T13:27:10.094Z,94723.69
2023-10-25T13:29:36.895Z,94729.38
2023-10-25T13:32:04.052Z,94729.72
2023-10-25T13:34:30.773Z,94740.47
2023-10-25T13:36:57.482Z,94730.97
2023-10-25T13:39:24.243Z,94731.13
2023-10-25T13:41:51.542Z,94729.16
2023-10-25T13:44:18.324Z,94729.88
2023-10-25T13:46:46.084Z,94710.94
2023-10-25T13:49:15.228Z,94706.34
2023-10-25T13:51:43.416Z,94722.44
2023-10-25T13:54:10.290Z,94716.53
2023-10-25T13:56:37.117Z,94717.63
2023-10-25T13:59:04.075Z,94708.03
2023-10-25T14:01:30.799Z,94718.44
2023-10-25T14:03:58.396Z,94731.97
2023-10-25T14:06:25.907Z,94716.41
2023-10-25T14:08:52.634Z,94716.19
2023-10-25T14:11:20.236Z,94708.16
2023-10-25T14:13:47.103Z,94707.38
2023-10-25T14:16:13.954Z,94701.13
2023-10-25T14:18:40.840Z,94708.66
2023-10-25T14:21:14.294Z,94702.63
2023-10-25T14:23:43.177Z,94694.59
2023-10-25T14:26:09.977Z,94687.22
2023-10-25T14:28:36.842Z,94669.50
2023-10-25T14:31:04.978Z,94676.56
2023-10-25T14:33:31.974Z,94677.56
2023-10-25T14:35:59.065Z,94679.91
2023-10-25T14:38:25.931Z,94675.81
2023-10-25T14:40:52.733Z,94674.56
2023-10-25T14:43:19.538Z,94677.31
2023-10-25T14:45:47.372Z,94674.16
2023-10-25T14:48:14.870Z,94671.34
2023-10-25T14:50:41.835Z,94675.50
2023-10-25T14:53:08.886Z,94672.09
2023-10-25T14:55:37.488Z,94670.44
2023-10-25T14:58:06.483Z,94675.13
2023-10-25T15:00:33.809Z,94685.66
2023-10-25T15:03:00.862Z,94678.16
2023-10-25T15:05:27.945Z,94688.31
2023-10-25T15:07:56.662Z,94686.78
2023-10-25T15:10:23.916Z,94682.84
2023-10-25T15:12:50.725Z,94681.09
2023-10-25T15:15:17.579Z,94660.72
2023-10-25T15:17:47.352Z,94661.59
2023-10-25T15:20:15.345Z,94661.31
2023-10-25T15:22:42.370Z,94654.81
2023-10-25T15:25:11.152Z,94653.72
2023-10-25T15:27:38.626Z,94644.50
2023-10-25T15:30:06.255Z,94633.72
2023-10-25T15:32:33.169Z,94635.56
2023-10-25T15:35:00.880Z,94644.88
2023-10-25T15:37:28.632Z,94625.00
2023-10-25T15:40:14.991Z,94633.22
2023-10-25T15:42:42.693Z,94638.06
2023-10-25T15:45:14.223Z,94626.22
2023-10-25T15:47:41.617Z,94619.66
2023-10-25T15:50:09.429Z,94622.94
2023-10-25T15:52:36.376Z,94620.19
2023-10-25T15:55:04.811Z,94610.81
2023-10-25T15:57:32.517Z,94608.19
2023-10-25T15:59:59.209Z,94614.63
2023-10-25T16:02:26.045Z,94602.09
2023-10-25T16:04:53.154Z,94608.19
2023-10-25T16:07:20.043Z,94611.97
2023-10-25T16:09:46.729Z,94606.34
2023-10-25T16:12:13.695Z,94616.41
2023-10-25T16:14:40.455Z,94594.59
2023-10-25T16:17:07.248Z,94597.50
2023-10-25T16:19:37.100Z,94607.00
2023-10-25T16:22:05.688Z,94602.56
2023-10-25T16:24:32.503Z,94594.53
2023-10-25T16:27:00.284Z,94594.69
2023-10-25T16:29:30.525Z,94603.03
2023-10-25T16:31:57.250Z,94591.72
2023-10-25T16:34:24.070Z,94577.38
2023-10-25T16:37:04.198Z,94585.59
2023-10-25T16:39:32.428Z,94573.06
2023-10-25T16:42:02.522Z,94579.75
2023-10-25T16:44:29.338Z,94579.50
2023-10-25T16:46:56.292Z,94568.56
2023-10-25T16:49:23.170Z,94575.91
2023-10-25T16:51:49.958Z,94584.75
2023-10-25T16:54:16.815Z,94583.16
2023-10-25T16:56:43.983Z,94597.53
2023-10-25T16:59:11.265Z,94579.59
2023-10-25T17:01:38.693Z,94571.38
2023-10-25T17:04:05.822Z,94578.25
2023-10-25T17:06:32.871Z,94591.81
2023-10-25T17:08:59.638Z,94596.63
2023-10-25T17:11:27.255Z,94583.25
2023-10-25T17:13:54.018Z,94587.66
2023-10-25T17:16:21.368Z,94579.75
2023-10-25T17:18:48.378Z,94565.16
2023-10-25T17:21:15.963Z,94588.88
2023-10-25T17:23:43.840Z,94598.13
2023-10-25T17:26:10.836Z,94595.44
2023-10-25T17:28:37.774Z,94616.78
2023-10-25T17:31:04.890Z,94606.97
2023-10-25T17:33:32.006Z,94593.31
2023-10-25T17:36:01.306Z,94604.09
2023-10-25T17:38:29.256Z,94625.47
2023-10-25T17:40:56.435Z,94626.31
2023-10-25T17:43:23.629Z,94638.94
2023-10-25T17:46:10.736Z,94659.47
2023-10-25T17:48:38.472Z,94668.78
2023-10-25T17:51:07.774Z,94678.22
2023-10-25T17:53:34.873Z,94694.28
2023-10-25T17:56:01.934Z,94735.22
2023-10-25T17:58:29.125Z,94745.53
2023-10-25T18:00:56.071Z,94749.88
2023-10-25T18:03:23.912Z,94753.72
2023-10-25T18:05:50.947Z,94761.72
2023-10-25T18:08:22.843Z,94728.09
2023-10-25T18:10:55.714Z,94715.41
2023-10-25T18:13:22.543Z,94723.47
2023-10-25T18:15:52.033Z,94724.56
2023-10-25T18:18:19.945Z,94724.78
2023-10-25T18:20:49.034Z,94720.75
2023-10-25T18:23:15.745Z,94720.34
2023-10-25T18:25:42.568Z,94704.31
2023-10-25T18:28:09.338Z,94696.84
2023-10-25T18:31:58.004Z,94702.38
2023-10-25T18:33:26.224Z,94701.50
2023-10-25T18:35:53.105Z,94691.59
2023-10-25T18:38:19.806Z,94698.91
2023-10-25T18:40:56.333Z,94702.53
2023-10-25T18:43:24.557Z,94706.94
2023-10-25T18:46:10.704Z,94727.66
2023-10-25T18:48:37.713Z,94733.47
2023-10-25T18:51:11.106Z,94734.88
2023-10-25T18:53:38.348Z,94752.28
2023-10-25T18:56:05.893Z,94754.91
2023-10-25T18:58:36.708Z,94758.69
2023-10-25T19:01:18.122Z,94750.91
2023-10-25T19:03:51.126Z,94758.09
2023-10-25T19:06:28.473Z,94774.22
2023-10-25T19:09:03.424Z,94786.72
2023-10-25T19:11:31.680Z,94791.44
2023-10-25T19:13:58.834Z,94793.94
2023-10-25T19:16:26.721Z,94793.69
2023-10-25T19:18:53.595Z,94802.19
2023-10-25T19:21:20.322Z,94803.72
2023-10-25T19:23:50.823Z,94824.13
2023-10-25T19:26:17.738Z,94814.22
2023-10-25T19:28:44.596Z,94821.19
2023-10-25T19:31:11.708Z,94826.53
2023-10-25T19:33:41.453Z,94823.38
2023-10-25T19:36:14.088Z,94837.09
2023-10-25T19:38:41.110Z,94835.97
2023-10-25T19:41:07.880Z,94844.97
2023-10-25T19:43:34.684Z,94854.59
2023-10-25T19:46:02.286Z,94847.03
2023-10-25T19:48:29.115Z,94853.47
2023-10-25T19:50:56.056Z,94863.09
2023-10-25T19:53:22.808Z,94870.75
2023-10-25T19:55:49.478Z,94870.97
2023-10-25T19:58:16.203Z,94876.13
2023-10-25T20:00:43.482Z,94876.25
2023-10-25T20:03:10.316Z,94883.91
2023-10-25T20:05:37.272Z,94896.72
2023-10-25T20:08:04.122Z,94900.88
2023-10-25T20:10:30.882Z,94912.34
2023-10-25T20:12:57.793Z,94905.31
2023-10-25T20:15:25.886Z,94913.00
2023-10-25T20:17:53.199Z,94916.78
2023-10-25T20:20:20.004Z,94921.03
2023-10-25T20:22:46.704Z,94920.56
2023-10-25T20:25:13.596Z,94935.59
2023-10-25T20:27:40.505Z,94945.63
2023-10-25T20:30:08.016Z,94943.03
2023-10-25T20:32:34.981Z,94945.66
2023-10-25T20:35:01.897Z,94952.66
2023-10-25T20:37:30.397Z,94953.56
2023-10-25T20:39:57.169Z,94964.53
2023-10-25T20:42:23.988Z,94976.66
2023-10-25T20:44:50.957Z,94970.56
2023-10-25T20:47:17.723Z,94975.41
2023-10-25T20:49:44.750Z,94981.66
2023-10-25T20:52:11.575Z,94993.63
2023-10-25T20:54:38.270Z,95001.22
2023-10-25T20:57:05.395Z,95003.03
2023-10-25T20:59:32.208Z,94996.38
2023-10-25T21:01:58.953Z,95008.09
2023-10-25T21:04:27.015Z,95005.66
2023-10-25T21:06:54.136Z,95003.63
2023-10-25T21:09:20.919Z,94998.84
2023-10-25T21:11:47.751Z,95006.91
2023-10-25T21:14:14.519Z,95014.38
2023-10-25T21:16:41.787Z,95016.44
2023-10-25T21:19:08.896Z,95011.53
2023-10-25T21:21:35.704Z,95011.97
2023-10-25T21:24:02.432Z,95011.41
2023-10-25T21:26:29.744Z,95006.50
2023-10-25T21:28:59.152Z,95000.63
2023-10-25T21:31:28.377Z,95009.50
2023-10-25T21:33:55.559Z,95007.47
2023-10-25T21:36:24.458Z,95007.13
2023-10-25T21:38:51.514Z,95010.47
2023-10-25T21:41:18.419Z,95012.31
2023-10-25T21:43:45.180Z,95009.13
2023-10-25T21:46:12.980Z,94999.75
2023-10-25T21:48:40.178Z,95006.50
2023-10-25T21:51:07.814Z,95005.22
2023-10-25T21:53:35.177Z,95004.13
2023-10-25T21:56:22.274Z,95005.88
2023-10-25T21:59:52.733Z,95011.75
2023-10-25T22:01:37.811Z,95014.28
2023-10-25T22:04:07.351Z,95018.56
2023-10-25T22:06:35.553Z,95021.28
2023-10-25T22:09:02.452Z,95025.56
2023-10-25T22:11:29.299Z,95030.81
2023-10-25T22:13:56.088Z,95014.91
2023-10-25T22:16:22.819Z,95016.31
2023-10-25T22:18:49.735Z,95005.84
2023-10-25T22:21:16.646Z,95003.06
2023-10-25T22:23:43.532Z,95002.78
2023-10-25T22:26:10.299Z,94986.16
2023-10-25T22:28:37.156Z,94983.13
2023-10-25T22:31:05.820Z,94977.63
2023-10-25T22:33:32.760Z,94970.47
2023-10-25T22:36:03.935Z,94971.59
2023-10-25T22:38:32.619Z,94961.94
2023-10-25T22:41:02.141Z,94940.06
2023-10-25T22:43:33.506Z,94939.91
2023-10-25T22:46:07.553Z,94934.22
2023-10-25T22:48:35.101Z,94938.78
2023-10-25T22:51:02.014Z,94939.75
2023-10-25T22:53:29.070Z,94954.13
2023-10-25T22:55:56.552Z,94971.25
2023-10-25T22:58:23.421Z,94971.59
2023-10-25T23:00:50.243Z,94963.66
2023-10-25T23:03:17.209Z,94961.72
2023-10-25T23:05:46.857Z,94955.22
2023-10-25T23:08:13.682Z,94958.41
2023-10-25T23:10:40.547Z,94966.16
2023-10-25T23:13:07.266Z,94969.66
2023-10-25T23:15:37.258Z,94965.50
2023-10-25T23:18:06.955Z,94961.53
2023-10-25T23:20:33.852Z,94954.41
2023-10-25T23:23:00.568Z,94961.22
2023-10-25T23:25:27.282Z,94966.75
2023-10-25T23:27:53.961Z,94964.69
2023-10-25T23:30:20.763Z,94964.16
2023-10-25T23:32:48.094Z,94967.81
2023-10-25T23:35:14.852Z,94966.72
2023-10-25T23:37:41.696Z,94963.06
2023-10-25T23:40:09.073Z,94969.56
2023-10-25T23:42:35.745Z,94965.78
2023-10-25T23:45:02.621Z,94963.22
2023-10-25T23:47:29.460Z,94969.56
2023-10-25T23:49:56.201Z,94966.53
2023-10-25T23:52:22.968Z,94961.09
2023-10-25T23:54:54.586Z,94946.56
2023-10-25T23:57:23.389Z,94963.34
2023-10-25T23:59:50.591Z,94955.91
